KHSB/HSB METAR and TAF weather

Enter ICAO airport designator
Station Type Date Time Source
KHSB METAR 2021/08/01 16:35 UTC NOAA

KHSB 011635Z AUTO 02003KT 10SM CLR 25/16 A3005 RMK AO2 T02460158


Station Type Date Time Source
KHSB Decoded METAR 2021/08/01 16:35 UTC NOAA

Harrisburg, Harrisburg-Raleigh Airport, IL, United States (KHSB) 37-48-41N 088-32-57W
Aug 01, 2021 - 12:35 PM EDT / 2021.08.01 1635 UTC
Wind: from the NNE (020 degrees) at 3 MPH (3 KT):0
Visibility: 10 mile(s):0
Sky conditions: clear
Temperature: 76.3 F (24.6 C)
Dew Point: 60.4 F (15.8 C)
Relative Humidity: 58%
Pressure (altimeter): 30.05 in. Hg (1017 hPa)
ob: KHSB 011635Z AUTO 02003KT 10SM CLR 25/16 A3005 RMK AO2 T02460158
cycle: 16

Station Type Date Time Source
KHSB TAF UTC NOAA

Error!

Example: see airport list